Flight Track Log - Related Links

Times and Time Zones

All times are in EDT time to prevent confusion due to time zone crossing. See the UAL1169 flight status page for this flight to view local times or setup timezone preferences in your user account.

Time Position Orientation Groundspeed Altitude Reporting Facility
EDT Latitude Longitude Course Direction KTS MPH feet Rate Location/Type
Mon 02:22:57 PM 33.9344 -118.4378 306° West 164 189 1,800  Level Los Angeles Center
Mon 02:24:00 PM 33.8972 -118.5094 238° Southwest 235 270 4,700 1,776 Climbing Los Angeles Center
Mon 02:25:02 PM 33.8533 -118.5853 235° Southwest 273 314 5,500 1,984 Climbing Los Angeles Center
Mon 02:26:04 PM 33.8033 -118.6697 235° Southwest 289 333 8,800 2,952 Climbing Los Angeles Center
Mon 02:27:00 PM 34.1155 -119.0488 320° Northwest  Level FlightAware Approximate
Mon 02:27:06 PM 33.7875 -118.7717 259° West 319 367 11,600  Level Los Angeles Center
Mon 02:28:00 PM 34.1728 -119.1657 306° West  Level FlightAware Approximate
Mon 02:28:08 PM 33.7836 -118.8878 268° West 346 398 13,800  Level Los Angeles Center
Mon 02:29:10 PM 33.7928 -119.0056 275° West 354 407 14,000 48 Climbing Los Angeles Center
Mon 02:30:12 PM 33.8414 -119.1069 300° West 353 406 13,900 1,932 Descending Los Angeles Center
Mon 02:32:00 PM 34.0122 -119.2467 326° Northwest  Level Estimated
Mon 02:34:33 PM 34.1042 -119.5800 325° Northwest 415 478 24,400  Level Los Angeles Center
Mon 02:35:35 PM 34.1714 -119.7008 304° West 429 494 26,500 2,214 Climbing Los Angeles Center
Mon 02:37:59 PM 34.3836 -119.9528 316° Northwest 457 526 32,000 1,668 Climbing Oakland Center
Mon 02:39:00 PM 34.6749 -119.7957 326° Northwest  Level Estimated
Mon 02:39:00 PM 34.4819 -120.0442 323° Northwest 443 510 32,200  Level Oakland Center
Mon 02:39:44 PM 34.5608 -120.1147 324° Northwest 441 507 33,900 962 Climbing Los Angeles Center
Mon 02:40:00 PM 34.7694 -119.8748 325° Northwest  Level Estimated
Mon 02:40:46 PM 34.6553 -120.1983 324° Northwest 442 509 33,900  Level Los Angeles Center
Mon 02:41:48 PM 34.7503 -120.2861 323° Northwest 436 502 34,000 48 Climbing Los Angeles Center
Mon 02:42:50 PM 34.8631 -120.3911 323° Northwest 431 496 34,000  Level Los Angeles Center
Mon 02:43:52 PM 34.9553 -120.4792 322° Northwest 431 496 34,000  Level Los Angeles Center
Mon 02:44:54 PM 35.0494 -120.5661 323° Northwest 432 497 34,000  Level Los Angeles Center
Mon 02:45:56 PM 35.1431 -120.6536 323° Northwest 430 495 34,000  Level Los Angeles Center
Mon 02:46:58 PM 35.2369 -120.7428 322° Northwest 432 497 34,000  Level Los Angeles Center
Mon 02:48:01 PM 35.3547 -120.8428 325° Northwest 431 496 34,000  Level Los Angeles Center
Mon 02:49:03 PM 35.4536 -120.9219 327° Northwest 428 493 34,000  Level Los Angeles Center
Mon 02:50:05 PM 35.5542 -121.0008 327° Northwest 429 494 34,000  Level Los Angeles Center
Mon 02:51:07 PM 35.6519 -121.0786 327° Northwest 431 496 34,000  Level Los Angeles Center
Mon 02:52:09 PM 35.7728 -121.1744 327° Northwest 429 494 34,000 -435 Level Los Angeles Center
Mon 02:53:11 PM 35.8744 -121.2556 327° Northwest 431 496 33,100 -1,444 Descending Los Angeles Center
Mon 02:54:22 PM 35.9936 -121.3542 326° Northwest 429 494 30,800 -1,850 Descending Oakland Center
Mon 02:55:24 PM 36.0928 -121.4325 327° Northwest 423 487 29,000 -1,751 Descending Oakland Center
Mon 02:57:27 PM 36.2819 -121.5875 327° Northwest 400 460 25,400 -1,761 Descending Oakland Center
Mon 02:58:28 PM 36.3722 -121.6647 325° Northwest 397 457 23,600 -1,707 Descending Oakland Center
Mon 02:59:30 PM 36.4608 -121.7392 326° Northwest 389 448 21,900 -1,659 Descending Oakland Center
Mon 03:00:31 PM 36.5506 -121.8114 327° Northwest 378 435 20,200 -1,610 Descending Oakland Center
Mon 03:01:33 PM 36.6361 -121.8808 327° Northwest 371 427 18,600 -1,707 Descending Oakland Center
Mon 03:02:34 PM 36.7356 -121.9625 327° Northwest 360 414 16,700 -1,721 Descending Oakland Center
Mon 03:03:35 PM 36.8333 -121.9833 350° North 347 399 15,100 -1,537 Descending Northern Cal TRACON
Mon 03:04:35 PM 36.9167 -122.0167 342° North 340 391 13,600 -1,548 Descending Northern Cal TRACON
Mon 03:05:39 PM 37.0150 -122.0347 352° North 333 383 11,900 -1,488 Descending Oakland Center
Mon 03:06:40 PM 37.1025 -122.0594 347° North 324 373 10,500 -1,073 Descending Oakland Center
Mon 03:07:42 PM 37.1833 -122.0786 349° North 298 343 9,700 -1,073 Descending Oakland Center
Mon 03:08:43 PM 37.2564 -122.0992 347° North 274 315 8,300 -1,561 Descending Oakland Center
Mon 03:09:45 PM 37.3256 -122.1150 350° North 259 298 6,500 -1,525 Descending Oakland Center
Mon 03:10:41 PM 37.4000 -122.1333 349° North 251 289 5,300 -1,293 Descending Northern Cal TRACON
Mon 03:11:41 PM 37.4667 -122.1333 360° North 228 262 4,000 -1,105 Descending Northern Cal TRACON
Mon 03:12:35 PM 37.5167 -122.1500 345° North 206 237 3,200 -750 Descending Northern Cal TRACON
Mon 03:13:41 PM 37.5500 -122.2167 302° West 184 212 2,500 -636 Descending Northern Cal TRACON

Login

Don't have an account? Register now (free) for customized features, flight alerts, and more!